createdAt,value
2023-08-03T00:00:40.358Z,53.60
2023-08-03T00:03:08.577Z,53.60
2023-08-03T00:05:36.839Z,53.20
2023-08-03T00:08:05.172Z,52.40
2023-08-03T00:10:36.417Z,52.60
2023-08-03T00:13:04.732Z,52.50
2023-08-03T00:15:34.358Z,52.80
2023-08-03T00:18:02.559Z,52.90
2023-08-03T00:20:30.754Z,53.10
2023-08-03T00:22:59.015Z,53.70
2023-08-03T00:25:27.157Z,53.90
2023-08-03T00:27:55.246Z,53.90
2023-08-03T00:30:23.506Z,53.60
2023-08-03T00:32:52.954Z,53.90
2023-08-03T00:35:21.150Z,53.70
2023-08-03T00:37:49.217Z,53.40
2023-08-03T00:40:18.696Z,53.10
2023-08-03T00:42:46.769Z,53.10
2023-08-03T00:45:14.872Z,53.30
2023-08-03T00:47:43.059Z,53.50
2023-08-03T00:50:12.755Z,52.70
2023-08-03T00:52:40.835Z,52.60
2023-08-03T00:55:09.787Z,52.40
2023-08-03T00:57:37.913Z,52.80
2023-08-03T01:00:07.138Z,52.70
2023-08-03T01:02:35.362Z,52.70
2023-08-03T01:05:03.513Z,53.10
2023-08-03T01:07:35.541Z,53.00
2023-08-03T01:10:03.698Z,52.90
2023-08-03T01:12:31.856Z,52.10
2023-08-03T01:14:59.984Z,52.30
2023-08-03T01:17:28.328Z,52.00
2023-08-03T01:19:56.543Z,51.80
2023-08-03T01:22:24.646Z,51.60
2023-08-03T01:24:54.088Z,51.50
2023-08-03T01:27:22.192Z,51.70
2023-08-03T01:29:50.263Z,51.40
2023-08-03T01:32:18.401Z,51.00
2023-08-03T01:34:46.554Z,51.60
2023-08-03T01:37:14.683Z,52.20
2023-08-03T01:39:46.316Z,51.60
2023-08-03T01:42:15.791Z,51.20
2023-08-03T01:44:44.013Z,51.60
2023-08-03T01:47:12.135Z,51.10
2023-08-03T01:49:40.242Z,51.00
2023-08-03T01:52:08.473Z,51.20
2023-08-03T01:54:36.616Z,51.30
2023-08-03T01:57:04.811Z,51.00
2023-08-03T01:59:34.347Z,51.30
2023-08-03T02:02:02.566Z,51.00
2023-08-03T02:04:30.710Z,51.50
2023-08-03T02:07:03.321Z,51.60
2023-08-03T02:09:31.439Z,51.60
2023-08-03T02:11:59.622Z,52.60
2023-08-03T02:14:27.750Z,53.00
2023-08-03T02:16:57.701Z,52.20
2023-08-03T02:19:25.860Z,52.40
2023-08-03T02:21:53.962Z,52.90
2023-08-03T02:24:22.030Z,52.50
2023-08-03T02:26:50.147Z,52.40
2023-08-03T02:29:17.221Z,52.70
2023-08-03T02:31:45.564Z,51.80
2023-08-03T02:34:15.186Z,51.90
2023-08-03T02:36:43.299Z,51.50
2023-08-03T02:39:11.555Z,51.20
2023-08-03T02:41:39.963Z,51.40
2023-08-03T02:44:08.185Z,51.20
2023-08-03T02:46:36.291Z,51.70
2023-08-03T02:49:04.435Z,52.00
2023-08-03T02:51:33.908Z,53.20
2023-08-03T02:54:02.036Z,53.10
2023-08-03T02:56:30.192Z,53.60
2023-08-03T02:58:58.287Z,53.50
2023-08-03T03:01:26.544Z,53.50
2023-08-03T03:03:54.651Z,54.40
2023-08-03T03:06:22.810Z,54.20
2023-08-03T03:08:52.329Z,54.10
2023-08-03T03:11:20.378Z,54.20
2023-08-03T03:13:48.631Z,54.80
2023-08-03T03:16:17.262Z,54.70
2023-08-03T03:18:45.466Z,54.20
2023-08-03T03:21:13.825Z,54.80
2023-08-03T03:23:41.946Z,54.80
2023-08-03T03:26:11.452Z,54.50
2023-08-03T03:28:39.644Z,54.70
2023-08-03T03:31:07.781Z,55.50
2023-08-03T03:33:35.968Z,55.10
2023-08-03T03:36:04.559Z,56.60
2023-08-03T03:38:32.621Z,56.30
2023-08-03T03:41:00.758Z,56.20
2023-08-03T03:43:30.205Z,56.40
2023-08-03T03:45:58.409Z,56.90
2023-08-03T03:48:26.543Z,56.70
2023-08-03T03:50:54.705Z,56.60
2023-08-03T03:53:22.840Z,57.40
2023-08-03T03:55:50.950Z,57.50
2023-08-03T03:58:19.056Z,57.40
2023-08-03T04:00:50.021Z,57.70
2023-08-03T04:03:18.313Z,56.90
2023-08-03T04:05:47.865Z,56.90
2023-08-03T04:08:16.036Z,56.70
2023-08-03T04:10:44.181Z,56.90
2023-08-03T04:13:12.361Z,57.00
2023-08-03T04:15:40.580Z,56.70
2023-08-03T04:18:10.139Z,57.10
2023-08-03T04:20:39.040Z,56.50
2023-08-03T04:23:07.192Z,56.60
2023-08-03T04:25:36.129Z,56.50
2023-08-03T04:28:04.271Z,56.10
2023-08-03T04:30:32.426Z,56.80
2023-08-03T04:33:00.565Z,56.40
2023-08-03T04:35:30.159Z,56.20
2023-08-03T04:37:58.246Z,56.70
2023-08-03T04:40:26.308Z,56.90
2023-08-03T04:42:54.441Z,56.30
2023-08-03T04:45:22.567Z,56.90
2023-08-03T04:47:50.750Z,56.40
2023-08-03T04:50:20.417Z,56.30
2023-08-03T04:52:49.965Z,56.50
2023-08-03T04:55:18.123Z,56.70
2023-08-03T04:57:46.231Z,56.60
2023-08-03T05:00:15.341Z,56.80
2023-08-03T05:02:43.507Z,56.50
2023-08-03T05:05:11.748Z,55.90
2023-08-03T05:07:39.867Z,56.10
2023-08-03T05:10:10.318Z,56.70
2023-08-03T05:12:39.509Z,56.40
2023-08-03T05:15:09.172Z,56.20
2023-08-03T05:17:37.319Z,56.40
2023-08-03T05:20:08.004Z,56.60
2023-08-03T05:22:36.276Z,56.80
2023-08-03T05:25:04.469Z,56.00
2023-08-03T05:27:33.907Z,56.40
2023-08-03T05:30:02.074Z,55.80
2023-08-03T05:32:30.204Z,55.60
2023-08-03T05:34:58.670Z,55.10
2023-08-03T05:37:27.449Z,55.40
2023-08-03T05:39:55.578Z,54.90
2023-08-03T05:42:23.749Z,54.30
2023-08-03T05:44:53.387Z,53.50
2023-08-03T05:47:21.605Z,54.30
2023-08-03T05:49:49.756Z,53.80
2023-08-03T05:52:17.981Z,53.90
2023-08-03T05:54:47.491Z,53.60
2023-08-03T05:57:15.710Z,53.70
2023-08-03T05:59:44.722Z,54.70
2023-08-03T06:02:21.945Z,54.70
2023-08-03T06:04:50.068Z,54.30
2023-08-03T06:07:18.199Z,54.90
2023-08-03T06:09:46.301Z,54.40
2023-08-03T06:12:15.390Z,55.30
2023-08-03T06:14:43.594Z,55.70
2023-08-03T06:17:12.042Z,55.70
2023-08-03T06:19:41.674Z,55.90
2023-08-03T06:22:15.455Z,56.80
2023-08-03T06:24:43.722Z,56.80
2023-08-03T06:27:13.146Z,58.10
2023-08-03T06:29:41.584Z,58.50
2023-08-03T06:32:13.961Z,59.70
2023-08-03T06:34:43.570Z,59.40
2023-08-03T06:37:11.698Z,60.30
2023-08-03T06:39:39.972Z,60.40
2023-08-03T06:42:08.794Z,60.90
2023-08-03T06:44:37.933Z,59.40
2023-08-03T06:47:07.084Z,59.70
2023-08-03T06:49:35.267Z,59.90
2023-08-03T06:52:05.157Z,59.70
2023-08-03T06:54:33.283Z,60.00
2023-08-03T06:57:01.405Z,59.90
2023-08-03T06:59:29.596Z,59.10
2023-08-03T07:01:57.886Z,59.30
2023-08-03T07:04:26.040Z,59.00
2023-08-03T07:06:54.120Z,58.90
2023-08-03T07:09:26.582Z,59.10
2023-08-03T07:11:54.757Z,58.30
2023-08-03T07:14:22.852Z,58.90
2023-08-03T07:16:51.019Z,58.00
2023-08-03T07:19:19.517Z,57.90
2023-08-03T07:21:47.826Z,58.70
2023-08-03T07:24:16.052Z,57.40
2023-08-03T07:26:45.608Z,57.30
2023-08-03T07:29:13.679Z,56.90
2023-08-03T07:31:41.765Z,56.60
2023-08-03T07:34:10.003Z,57.40
2023-08-03T07:36:38.129Z,57.80
2023-08-03T07:39:07.007Z,57.20
2023-08-03T07:41:35.645Z,57.40
2023-08-03T07:44:05.351Z,56.50
2023-08-03T07:46:33.527Z,56.90
2023-08-03T07:49:01.822Z,57.00
2023-08-03T07:51:30.586Z,56.80
2023-08-03T07:53:58.861Z,56.60
2023-08-03T07:56:28.571Z,56.50
2023-08-03T07:58:57.837Z,58.10
2023-08-03T08:01:27.452Z,57.90
2023-08-03T08:03:56.002Z,59.50
2023-08-03T08:06:24.341Z,61.40
2023-08-03T08:08:54.290Z,62.10
2023-08-03T08:11:22.527Z,62.20
2023-08-03T08:13:50.683Z,62.70
2023-08-03T08:16:18.862Z,62.20
2023-08-03T08:18:48.399Z,61.90
2023-08-03T08:21:16.709Z,62.30
2023-08-03T08:23:44.893Z,63.00
2023-08-03T08:26:14.221Z,63.80
2023-08-03T08:28:47.978Z,63.70
2023-08-03T08:31:25.288Z,64.00
2023-08-03T08:33:55.499Z,63.60
2023-08-03T08:36:23.845Z,63.90
2023-08-03T08:38:51.983Z,64.20
2023-08-03T08:41:20.161Z,63.50
2023-08-03T08:43:48.333Z,63.70
2023-08-03T08:46:16.770Z,63.70
2023-08-03T08:51:18.704Z,62.20
2023-08-03T09:01:52.335Z,62.00
2023-08-03T09:04:35.048Z,61.60
2023-08-03T09:07:05.782Z,62.10
2023-08-03T09:09:35.096Z,61.80
2023-08-03T09:12:04.033Z,62.90
2023-08-03T09:14:32.929Z,62.70
2023-08-03T09:17:17.119Z,63.00
2023-08-03T09:25:01.092Z,62.70
2023-08-03T09:30:04.056Z,62.80
2023-08-03T09:32:35.655Z,62.50
2023-08-03T09:35:04.280Z,61.30
2023-08-03T09:40:11.367Z,61.10
2023-08-03T09:42:39.562Z,61.20
2023-08-03T09:45:33.210Z,60.90
2023-08-03T09:47:57.287Z,61.40
2023-08-03T09:50:25.700Z,62.00
2023-08-03T09:52:55.226Z,63.40
2023-08-03T09:55:28.759Z,64.70
2023-08-03T09:58:01.349Z,66.80
2023-08-03T10:00:29.487Z,67.40
2023-08-03T10:02:58.424Z,67.90
2023-08-03T10:07:59.262Z,69.10
2023-08-03T10:10:28.350Z,69.10
2023-08-03T10:12:59.094Z,69.00
2023-08-03T10:15:27.581Z,68.60
2023-08-03T10:17:55.840Z,68.00
2023-08-03T10:20:24.322Z,68.40
2023-08-03T10:23:10.487Z,69.50
2023-08-03T10:25:52.590Z,69.10
2023-08-03T10:28:21.009Z,71.40
2023-08-03T10:31:12.193Z,70.50
2023-08-03T10:34:04.573Z,68.70
2023-08-03T10:36:42.040Z,67.30
2023-08-03T10:39:15.189Z,67.10
2023-08-03T10:41:43.934Z,66.50
2023-08-03T10:44:27.005Z,66.10
2023-08-03T10:46:56.536Z,65.40
2023-08-03T10:49:51.013Z,65.20
2023-08-03T10:52:20.809Z,64.10
2023-08-03T10:54:50.436Z,63.90
2023-08-03T10:57:20.615Z,60.50
2023-08-03T10:59:49.418Z,60.90
2023-08-03T11:02:20.265Z,60.60
2023-08-03T11:04:48.645Z,59.40
2023-08-03T11:07:18.529Z,61.40
2023-08-03T11:09:49.054Z,60.10
2023-08-03T11:12:18.874Z,60.50
2023-08-03T11:14:47.273Z,59.60
2023-08-03T11:17:15.737Z,58.60
2023-08-03T11:19:44.665Z,59.30
2023-08-03T11:22:13.525Z,58.50
2023-08-03T11:24:43.792Z,56.30
2023-08-03T11:27:12.571Z,56.90
2023-08-03T11:29:43.964Z,55.20
2023-08-03T11:32:13.182Z,55.30
2023-08-03T11:34:41.644Z,55.40
2023-08-03T11:37:11.135Z,56.30
2023-08-03T11:39:39.251Z,54.10
2023-08-03T11:42:08.713Z,54.20
2023-08-03T11:44:49.975Z,55.00
2023-08-03T11:47:25.090Z,53.40
2023-08-03T11:49:54.158Z,53.60
2023-08-03T11:52:22.850Z,54.60
2023-08-03T11:54:51.460Z,53.40
2023-08-03T11:57:38.604Z,54.00
2023-08-03T12:00:07.842Z,53.40
2023-08-03T12:02:40.789Z,53.60
2023-08-03T12:05:16.512Z,53.20
2023-08-03T12:08:05.885Z,53.30
2023-08-03T12:10:39.960Z,53.50
2023-08-03T12:15:36.797Z,50.70
2023-08-03T12:18:06.266Z,51.20
2023-08-03T12:20:37.047Z,50.70
2023-08-03T12:23:05.329Z,50.90
2023-08-03T12:25:36.857Z,50.40
2023-08-03T12:28:05.780Z,52.60
2023-08-03T12:30:34.055Z,52.90
2023-08-03T12:33:02.263Z,52.60
2023-08-03T12:35:31.921Z,52.60
2023-08-03T12:38:00.209Z,51.90
2023-08-03T12:40:28.826Z,51.10
2023-08-03T12:42:57.380Z,52.10
2023-08-03T12:45:25.848Z,51.30
2023-08-03T12:47:55.718Z,51.90
2023-08-03T12:50:24.566Z,50.30
2023-08-03T12:52:55.148Z,50.40
2023-08-03T12:55:23.366Z,50.70
2023-08-03T12:57:51.717Z,50.60
2023-08-03T13:00:20.072Z,49.90
2023-08-03T13:02:48.401Z,50.10
2023-08-03T13:05:16.863Z,51.70
2023-08-03T13:07:47.783Z,52.70
2023-08-03T13:10:17.431Z,50.20
2023-08-03T13:12:45.565Z,50.80
2023-08-03T13:15:14.160Z,50.00
2023-08-03T13:17:42.541Z,51.60
2023-08-03T13:20:11.660Z,49.60
2023-08-03T13:22:40.064Z,49.40
2023-08-03T13:25:08.892Z,50.60
2023-08-03T13:27:38.387Z,49.30
2023-08-03T13:30:07.993Z,49.40
2023-08-03T13:32:36.636Z,51.40
2023-08-03T13:35:05.110Z,50.80
2023-08-03T13:37:33.197Z,50.90
2023-08-03T13:40:01.332Z,50.60
2023-08-03T13:42:29.479Z,48.20
2023-08-03T13:44:58.981Z,48.70
2023-08-03T13:47:27.239Z,49.10
2023-08-03T13:49:55.797Z,49.50
2023-08-03T13:52:24.112Z,49.60
2023-08-03T13:54:52.270Z,47.40
2023-08-03T14:04:56.306Z,48.90
2023-08-03T14:12:58.793Z,48.90
2023-08-03T14:22:51.159Z,48.00
2023-08-03T14:27:53.350Z,48.70
2023-08-03T14:30:23.175Z,48.80
2023-08-03T14:32:52.916Z,48.00
2023-08-03T14:37:52.160Z,48.10
2023-08-03T14:40:20.319Z,48.20
2023-08-03T14:42:56.446Z,48.80
2023-08-03T14:45:35.213Z,49.00
2023-08-03T14:48:07.398Z,47.40
2023-08-03T14:50:38.063Z,47.50
2023-08-03T14:53:06.311Z,47.60
2023-08-03T14:55:34.644Z,47.70
2023-08-03T14:58:03.012Z,48.20
2023-08-03T15:00:31.412Z,47.10
2023-08-03T15:02:59.883Z,48.30
2023-08-03T15:05:30.919Z,47.60
2023-08-03T15:07:59.191Z,48.80
2023-08-03T15:10:27.340Z,47.70
2023-08-03T15:12:57.343Z,47.90
2023-08-03T15:17:59.113Z,47.70
2023-08-03T15:20:37.081Z,47.40
2023-08-03T15:23:08.483Z,47.10
2023-08-03T15:25:38.223Z,46.20
2023-08-03T15:28:11.034Z,45.60
2023-08-03T15:35:44.202Z,47.10
2023-08-03T15:38:18.094Z,47.20
2023-08-03T15:41:01.696Z,46.60
2023-08-03T15:43:37.239Z,46.60
2023-08-03T15:46:12.732Z,46.80
2023-08-03T15:49:03.271Z,47.20
2023-08-03T15:51:37.981Z,47.00
2023-08-03T15:54:14.682Z,47.30
2023-08-03T15:56:43.629Z,46.60
2023-08-03T15:59:11.838Z,47.00
2023-08-03T16:01:40.015Z,47.30
2023-08-03T16:04:08.330Z,47.60
2023-08-03T16:06:37.830Z,46.20
2023-08-03T16:09:06.119Z,46.60
2023-08-03T16:14:08.846Z,47.70
2023-08-03T16:16:36.984Z,48.30
2023-08-03T16:19:05.239Z,48.90
2023-08-03T16:21:33.375Z,50.00
2023-08-03T16:24:03.000Z,50.00
2023-08-03T16:26:31.361Z,51.10
2023-08-03T16:28:59.538Z,55.10
2023-08-03T16:31:30.578Z,66.60
2023-08-03T16:36:30.563Z,65.20
2023-08-03T16:38:58.672Z,63.20
2023-08-03T16:41:28.304Z,64.20
2023-08-03T16:43:56.393Z,64.00
2023-08-03T16:46:24.654Z,63.90
2023-08-03T16:48:54.861Z,62.50
2023-08-03T16:51:23.332Z,61.90
2023-08-03T16:53:51.440Z,61.90
2023-08-03T16:56:19.570Z,63.30
2023-08-03T16:58:49.025Z,64.30
2023-08-03T17:01:17.282Z,63.20
2023-08-03T17:03:45.560Z,63.60
2023-08-03T17:06:14.240Z,63.00
2023-08-03T17:08:42.465Z,64.00
2023-08-03T17:11:10.915Z,65.70
2023-08-03T17:13:39.109Z,64.60
2023-08-03T17:16:08.953Z,63.20
2023-08-03T17:18:37.285Z,63.40
2023-08-03T17:21:07.523Z,63.70
2023-08-03T17:23:35.642Z,63.60
2023-08-03T17:26:03.767Z,63.60
2023-08-03T17:28:31.960Z,62.90
2023-08-03T17:31:03.235Z,63.60
2023-08-03T17:33:32.933Z,62.90
2023-08-03T17:36:01.093Z,61.50
2023-08-03T17:38:29.551Z,60.90
2023-08-03T17:40:57.724Z,61.20
2023-08-03T17:43:27.195Z,61.20
2023-08-03T17:45:55.385Z,61.70
2023-08-03T17:48:25.067Z,60.90
2023-08-03T17:50:54.821Z,61.00
2023-08-03T17:53:24.007Z,60.70
2023-08-03T17:55:52.155Z,60.90
2023-08-03T17:58:20.243Z,59.80
2023-08-03T18:00:48.429Z,59.80
2023-08-03T18:03:16.623Z,60.20
2023-08-03T18:05:44.837Z,60.00
2023-08-03T18:08:14.353Z,59.20
2023-08-03T18:10:44.782Z,59.50
2023-08-03T18:13:12.897Z,59.90
2023-08-03T18:15:41.035Z,59.60
2023-08-03T18:18:09.184Z,60.00
2023-08-03T18:20:38.634Z,60.80
2023-08-03T18:23:06.829Z,60.60
2023-08-03T18:25:36.358Z,60.10
2023-08-03T18:28:04.850Z,59.80
2023-08-03T18:30:33.894Z,60.50
2023-08-03T18:33:02.170Z,60.10
2023-08-03T18:35:30.282Z,60.10
2023-08-03T18:37:58.397Z,60.30
2023-08-03T18:40:26.511Z,60.50
2023-08-03T18:42:56.066Z,60.30
2023-08-03T18:45:24.239Z,60.20
2023-08-03T18:47:52.888Z,60.60
2023-08-03T18:50:21.206Z,61.30
2023-08-03T18:52:49.990Z,60.90
2023-08-03T18:55:18.271Z,60.60
2023-08-03T18:57:46.385Z,62.10
2023-08-03T19:00:16.755Z,62.10
2023-08-03T19:02:44.908Z,61.60
2023-08-03T19:05:13.250Z,61.00
2023-08-03T19:07:41.388Z,62.40
2023-08-03T19:10:10.020Z,61.80
2023-08-03T19:12:38.151Z,61.20
2023-08-03T19:15:07.369Z,60.30
2023-08-03T19:17:36.857Z,60.90
2023-08-03T19:20:05.810Z,61.20
2023-08-03T19:22:33.918Z,61.10
2023-08-03T19:25:02.004Z,61.80
2023-08-03T19:27:30.125Z,62.30
2023-08-03T19:29:58.234Z,62.30
2023-08-03T19:32:26.350Z,63.10
2023-08-03T19:34:55.890Z,62.70
2023-08-03T19:37:24.006Z,62.90
2023-08-03T19:39:52.083Z,63.60
2023-08-03T19:42:20.180Z,63.30
2023-08-03T19:44:48.574Z,62.40
2023-08-03T19:47:16.754Z,62.60
2023-08-03T20:07:42.217Z,65.30
2023-08-03T20:10:13.676Z,64.70
2023-08-03T20:12:43.120Z,65.20
2023-08-03T20:15:12.613Z,65.20
2023-08-03T20:17:46.077Z,64.60
2023-08-03T20:20:14.322Z,65.10
2023-08-03T20:22:43.830Z,65.00
2023-08-03T20:25:11.971Z,65.00
2023-08-03T20:27:41.613Z,64.90
2023-08-03T20:30:10.801Z,65.20
2023-08-03T20:32:39.079Z,66.00
2023-08-03T20:35:08.450Z,66.90
2023-08-03T20:37:38.382Z,66.50
2023-08-03T20:40:10.874Z,65.70
2023-08-03T20:45:48.842Z,66.50
2023-08-03T20:47:59.023Z,67.10
2023-08-03T20:52:58.261Z,66.90
2023-08-03T20:55:28.440Z,66.30
2023-08-03T20:57:57.659Z,66.80
2023-08-03T21:00:27.040Z,66.60
2023-08-03T21:03:00.721Z,66.60
2023-08-03T21:05:36.817Z,64.90
2023-08-03T21:08:11.791Z,64.00
2023-08-03T21:13:12.958Z,63.90
2023-08-03T21:15:41.558Z,65.30
2023-08-03T21:20:40.892Z,65.80
2023-08-03T21:23:09.106Z,65.70
2023-08-03T21:25:37.291Z,64.90
2023-08-03T21:28:06.888Z,64.10
2023-08-03T21:30:35.026Z,64.10
2023-08-03T21:33:03.547Z,63.40
2023-08-03T21:35:31.764Z,62.50
2023-08-03T21:37:59.914Z,63.10
2023-08-03T21:40:28.098Z,64.70
2023-08-03T21:42:56.187Z,63.90
2023-08-03T21:45:25.762Z,64.10
2023-08-03T21:47:53.960Z,64.70
2023-08-03T21:50:22.750Z,65.10
2023-08-03T21:52:50.863Z,65.10
2023-08-03T21:55:19.052Z,65.00
2023-08-03T21:57:47.252Z,65.60
2023-08-03T22:00:15.955Z,64.50
2023-08-03T22:02:45.563Z,63.80
2023-08-03T22:05:13.851Z,64.30
2023-08-03T22:07:41.987Z,64.90
2023-08-03T22:10:11.316Z,65.10
2023-08-03T22:12:39.471Z,66.10
2023-08-03T22:15:08.273Z,66.20
2023-08-03T22:17:36.797Z,64.10
2023-08-03T22:20:07.318Z,64.10
2023-08-03T22:22:35.459Z,66.10
2023-08-03T22:25:03.628Z,64.50
2023-08-03T22:27:31.796Z,64.50
2023-08-03T22:30:01.033Z,64.00
2023-08-03T22:32:29.240Z,63.20
2023-08-03T22:34:58.031Z,64.50
2023-08-03T22:37:27.570Z,63.30
2023-08-03T22:39:55.699Z,64.30
2023-08-03T22:42:23.838Z,64.40
2023-08-03T22:44:51.967Z,65.00
2023-08-03T22:47:20.130Z,64.30
2023-08-03T22:49:48.349Z,63.00
2023-08-03T22:52:16.462Z,64.10
2023-08-03T22:54:45.981Z,63.40
2023-08-03T22:57:14.116Z,63.50
2023-08-03T22:59:42.254Z,63.50
2023-08-03T23:02:10.357Z,65.80
2023-08-03T23:04:38.629Z,64.90
2023-08-03T23:07:06.919Z,65.70
2023-08-03T23:09:35.088Z,64.90
2023-08-03T23:12:04.728Z,65.10
2023-08-03T23:14:32.857Z,64.70
2023-08-03T23:17:00.971Z,64.80
2023-08-03T23:19:29.048Z,64.70
2023-08-03T23:21:59.250Z,64.20
2023-08-03T23:24:27.526Z,65.20
2023-08-03T23:26:55.838Z,65.30
2023-08-03T23:29:25.317Z,65.20
2023-08-03T23:31:53.417Z,64.70
2023-08-03T23:34:21.528Z,64.60
2023-08-03T23:36:49.698Z,64.20
2023-08-03T23:39:17.773Z,63.60
2023-08-03T23:41:46.122Z,64.40
2023-08-03T23:44:14.388Z,65.60
2023-08-03T23:46:43.867Z,65.50
2023-08-03T23:49:11.925Z,65.40
2023-08-03T23:51:40.134Z,65.40
2023-08-03T23:54:08.321Z,65.50
2023-08-03T23:56:36.414Z,65.10
2023-08-03T23:59:04.515Z,64.90
